Time;durP1;ratioP1;P1;durP2;ratioP2;P2;SDS_P1;SDS_P2;PMS_P1;PMS_P2;Temp;Humidity;BMP_temperature;BMP_pressure;BME280_temperature;BME280_humidity;BME280_pressure;Samples;Min_cycle;Max_cycle;Signal;HPM_P1;HPM_P2
2022/01/21 00:00:21;;;;;;;8.52;4.13;;;1.80;62.50;;;;;;5072049;28;20056;-88
2022/01/21 00:02:47;;;;;;;5.93;4.35;;;1.80;62.50;;;;;;5071162;28;20435;-89
2022/01/21 00:05:13;;;;;;;6.07;3.92;;;1.80;62.50;;;;;;5069294;28;20096;-89
2022/01/21 00:07:39;;;;;;;6.97;4.13;;;1.70;62.30;;;;;;5071460;28;20036;-90
2022/01/21 00:10:07;;;;;;;6.57;3.85;;;1.70;62.30;;;;;;5069297;28;20036;-89
2022/01/21 00:12:35;;;;;;;6.13;4.30;;;1.70;62.30;;;;;;5070201;28;20024;-89
2022/01/21 00:15:02;;;;;;;12.52;4.78;;;1.70;62.40;;;;;;5069376;28;20388;-89
2022/01/21 00:17:28;;;;;;;7.60;4.30;;;1.70;62.40;;;;;;5068236;28;20190;-91
2022/01/21 00:30:07;;;;;;;7.93;4.15;;;1.70;62.40;;;;;;5068674;28;20037;-89
2022/01/21 00:30:54;;;;;;;8.43;4.95;;;1.60;62.20;;;;;;5068671;28;20279;-87
2022/01/21 00:33:20;;;;;;;6.40;4.25;;;1.60;62.20;;;;;;5051513;28;20043;-89
2022/01/21 00:35:47;;;;;;;6.78;4.22;;;1.60;62.20;;;;;;5068403;28;20089;-86
2022/01/21 00:38:14;;;;;;;9.68;4.53;;;1.60;62.20;;;;;;5067228;28;20408;-85
2022/01/21 00:40:41;;;;;;;8.80;4.28;;;1.60;62.20;;;;;;5068011;28;20036;-85
2022/01/21 00:43:20;;;;;;;8.52;4.32;;;1.60;62.10;;;;;;5049766;28;20510;-85
2022/01/21 00:45:46;;;;;;;8.63;4.80;;;1.60;62.20;;;;;;5068184;28;20021;-86
2022/01/21 00:48:12;;;;;;;5.38;3.80;;;1.60;62.20;;;;;;5066064;28;20043;-85
2022/01/21 00:50:39;;;;;;;9.73;4.40;;;1.50;62.00;;;;;;5049491;28;20021;-85
2022/01/21 00:53:05;;;;;;;6.72;4.45;;;1.60;62.20;;;;;;5067428;28;20075;-84
2022/01/21 00:55:31;;;;;;;7.32;3.83;;;1.60;62.30;;;;;;5082795;28;20032;-85
2022/01/21 00:57:57;;;;;;;5.80;4.10;;;1.50;62.00;;;;;;5068902;28;20024;-85
2022/01/21 01:00:23;;;;;;;6.97;4.00;;;1.60;62.70;;;;;;5085197;28;20117;-85
2022/01/21 01:02:49;;;;;;;7.95;3.65;;;1.50;62.00;;;;;;5066529;28;20032;-85
2022/01/21 01:05:16;;;;;;;7.30;4.30;;;1.50;62.10;;;;;;5050074;28;20075;-85
2022/01/21 01:07:42;;;;;;;7.55;4.03;;;1.50;62.10;;;;;;5068579;28;20028;-85
2022/01/21 01:10:13;;;;;;;6.53;3.92;;;1.40;61.90;;;;;;5071194;28;20028;-85
2022/01/21 01:20:45;;;;;;;6.45;4.25;;;1.40;62.00;;;;;;5069844;28;20113;-87
2022/01/21 01:28:34;;;;;;;9.65;4.28;;;1.30;61.80;;;;;;5087222;28;20552;-89
2022/01/21 01:31:00;;;;;;;7.75;4.00;;;1.30;61.80;;;;;;5070084;28;20063;-88
2022/01/21 01:33:34;;;;;;;6.40;4.15;;;1.30;61.90;;;;;;5071310;28;20032;-88
2022/01/21 01:36:01;;;;;;;5.30;3.78;;;1.30;61.90;;;;;;5086633;28;20132;-88
2022/01/21 01:38:46;;;;;;;5.90;4.22;;;1.30;61.90;;;;;;5074243;28;20063;-88
2022/01/21 01:41:15;;;;;;;6.75;4.47;;;1.30;61.90;;;;;;5072568;28;20131;-89
2022/01/21 01:52:00;;;;;;;8.40;4.40;;;1.20;61.80;;;;;;5069463;28;20075;-87
2022/01/21 01:54:29;;;;;;;7.07;3.90;;;1.20;61.70;;;;;;5073396;28;20187;-88
2022/01/21 01:56:56;;;;;;;6.93;4.00;;;1.10;61.60;;;;;;5052052;28;20035;-87
2022/01/21 01:59:24;;;;;;;7.35;3.75;;;1.10;61.60;;;;;;5069092;28;20119;-89
2022/01/21 02:01:59;;;;;;;6.03;3.90;;;1.10;61.60;;;;;;5070010;28;20149;-89
2022/01/21 02:04:26;;;;;;;6.25;4.32;;;1.10;61.60;;;;;;5069235;28;20035;-89
2022/01/21 02:06:53;;;;;;;8.63;3.97;;;1.10;61.70;;;;;;5069226;28;20024;-89
2022/01/21 02:09:19;;;;;;;8.07;4.30;;;1.10;61.60;;;;;;5051944;28;20029;-87
2022/01/21 02:11:46;;;;;;;7.55;4.13;;;1.00;61.50;;;;;;5069011;28;20044;-88
2022/01/21 02:14:20;;;;;;;6.32;3.45;;;1.00;61.50;;;;;;5084833;28;20491;-86
2022/01/21 02:22:14;;;;;;;9.05;4.70;;;1.00;61.50;;;;;;5069302;28;20052;-84
2022/01/21 02:27:32;;;;;;;7.20;3.75;;;0.90;61.40;;;;;;5069762;28;20048;-90
2022/01/21 02:30:03;;;;;;;6.85;3.85;;;0.90;61.40;;;;;;5052515;28;20029;-89
2022/01/21 02:32:31;;;;;;;;;;;0.90;61.40;;;;;;5052885;28;20356;-88
2022/01/21 02:34:57;;;;;;;7.60;3.97;;;0.90;61.40;;;;;;5069908;28;20362;-90
2022/01/21 02:37:24;;;;;;;5.32;3.25;;;0.90;61.40;;;;;;5069627;28;20143;-84
2022/01/21 02:39:51;;;;;;;6.07;3.85;;;0.80;61.20;;;;;;5068498;28;20078;-87
2022/01/21 02:42:19;;;;;;;6.18;3.65;;;0.80;61.20;;;;;;5067965;28;20721;-86
2022/01/21 02:44:45;;;;;;;7.05;4.30;;;0.80;61.20;;;;;;5067789;28;20120;-87
2022/01/21 02:47:12;;;;;;;5.35;3.85;;;0.80;61.20;;;;;;5069987;28;20096;-90
2022/01/21 02:49:44;;;;;;;7.60;4.25;;;0.80;61.20;;;;;;5071637;28;20056;-87
2022/01/21 02:52:10;;;;;;;7.70;4.20;;;0.80;61.20;;;;;;5071414;28;20106;-89
2022/01/21 02:54:37;;;;;;;5.13;3.90;;;0.80;61.20;;;;;;5071059;28;20029;-89
2022/01/21 02:57:06;;;;;;;5.80;4.25;;;0.70;61.10;;;;;;5087889;28;20036;-83
2022/01/21 02:59:33;;;;;;;7.72;3.83;;;0.70;61.10;;;;;;5070837;28;20430;-85
2022/01/21 03:02:00;;;;;;;5.28;3.58;;;0.70;61.10;;;;;;5087988;28;20029;-87
2022/01/21 03:04:38;;;;;;;7.57;4.20;;;0.70;61.10;;;;;;5071802;28;20029;-87
2022/01/21 03:07:05;;;;;;;8.25;5.18;;;0.70;61.10;;;;;;5088208;28;20024;-85
2022/01/21 03:09:31;;;;;;;6.78;3.38;;;0.70;61.10;;;;;;5071930;28;20032;-86
2022/01/21 03:11:57;;;;;;;7.90;4.18;;;0.60;60.90;;;;;;5071510;28;20078;-86
2022/01/21 03:14:24;;;;;;;5.43;3.28;;;0.60;60.90;;;;;;5071896;28;20039;-89
2022/01/21 03:16:50;;;;;;;7.03;3.83;;;0.60;61.00;;;;;;5088362;28;20038;-89
2022/01/21 03:19:16;;;;;;;5.72;3.88;;;0.60;60.90;;;;;;5076097;28;20036;-86
2022/01/21 03:21:42;;;;;;;6.75;3.90;;;0.60;60.90;;;;;;5082959;28;20072;-84
2022/01/21 03:24:09;;;;;;;7.43;4.03;;;0.60;60.90;;;;;;5086438;28;20537;-87
2022/01/21 03:26:35;;;;;;;5.47;3.45;;;0.60;61.00;;;;;;5073220;28;20035;-86
2022/01/21 03:29:04;;;;;;;8.35;3.97;;;0.60;61.00;;;;;;5070222;28;20032;-84
2022/01/21 03:31:34;;;;;;;7.85;3.88;;;0.50;60.80;;;;;;5070369;28;20025;-83
2022/01/21 03:34:02;;;;;;;7.18;4.07;;;0.50;60.80;;;;;;5069600;28;20095;-83
2022/01/21 03:36:31;;;;;;;7.38;3.85;;;0.50;60.80;;;;;;5070091;28;20082;-83
2022/01/21 03:38:58;;;;;;;7.10;3.65;;;0.50;60.80;;;;;;5070589;28;20028;-83
2022/01/21 03:41:24;;;;;;;7.95;4.32;;;0.50;60.80;;;;;;5069591;28;20032;-83
2022/01/21 03:43:51;;;;;;;7.25;3.40;;;0.50;60.80;;;;;;5069923;28;20082;-82
2022/01/21 03:46:18;;;;;;;5.60;3.47;;;0.50;60.80;;;;;;5069488;28;20036;-87
2022/01/21 03:48:48;;;;;;;4.53;3.35;;;0.40;60.60;;;;;;5070443;28;20028;-92
2022/01/21 03:51:17;;;;;;;5.80;3.13;;;0.40;60.60;;;;;;5052939;28;20071;-89
2022/01/21 03:53:45;;;;;;;7.97;3.75;;;0.40;60.60;;;;;;5088610;28;20024;-88
2022/01/21 03:56:13;;;;;;;6.53;3.47;;;0.40;60.60;;;;;;5087008;28;20036;-86
2022/01/21 03:58:39;;;;;;;5.78;4.35;;;0.40;61.20;;;;;;5069928;28;20059;-87
2022/01/21 04:01:09;;;;;;;8.15;3.58;;;0.40;60.70;;;;;;5069721;28;20024;-85
2022/01/21 04:03:36;;;;;;;8.73;3.70;;;0.40;60.70;;;;;;5086947;28;20055;-85
2022/01/21 04:06:02;;;;;;;5.57;4.05;;;0.30;60.50;;;;;;5069767;28;20048;-87
2022/01/21 04:08:29;;;;;;;6.60;3.45;;;0.30;60.50;;;;;;5069718;28;20480;-87
2022/01/21 04:10:58;;;;;;;7.93;3.70;;;0.30;60.50;;;;;;5069689;28;20206;-87
2022/01/21 04:13:26;;;;;;;5.63;3.50;;;0.30;60.50;;;;;;5070119;28;20052;-87
2022/01/21 04:15:57;;;;;;;7.20;3.88;;;0.30;60.50;;;;;;5070029;28;20036;-87
2022/01/21 04:18:23;;;;;;;6.25;3.38;;;0.30;60.50;;;;;;5069941;28;20039;-89
2022/01/21 04:20:59;;;;;;;6.43;3.42;;;0.20;60.40;;;;;;5052623;28;20064;-88
2022/01/21 04:23:27;;;;;;;7.65;3.30;;;0.20;60.40;;;;;;5070647;28;20036;-87
2022/01/21 04:25:53;;;;;;;6.50;3.22;;;0.20;60.30;;;;;;5069714;28;20403;-87
2022/01/21 04:28:20;;;;;;;6.75;3.40;;;0.20;60.40;;;;;;5086633;28;20032;-89
2022/01/21 04:30:48;;;;;;;5.55;3.25;;;0.20;60.40;;;;;;5069935;28;20043;-90
2022/01/21 04:33:15;;;;;;;5.68;3.28;;;0.20;60.40;;;;;;5070264;28;20146;-91
2022/01/21 04:35:47;;;;;;;9.32;3.90;;;0.20;60.40;;;;;;5070150;28;20518;-87
2022/01/21 04:38:16;;;;;;;5.22;3.00;;;0.20;60.40;;;;;;5071415;28;20051;-86
2022/01/21 04:40:53;;;;;;;8.60;3.88;;;0.10;60.20;;;;;;5086492;28;20036;-84
2022/01/21 04:48:49;;;;;;;5.53;3.33;;;0.10;60.20;;;;;;5090041;28;20031;-85
2022/01/21 04:51:18;;;;;;;7.90;3.75;;;0.10;60.20;;;;;;5073672;28;20055;-85
2022/01/21 04:53:48;;;;;;;5.13;2.83;;;0.10;60.20;;;;;;5090821;28;20029;-85
2022/01/21 04:56:27;;;;;;;6.57;2.97;;;0.10;60.20;;;;;;5073396;28;20044;-87
2022/01/21 04:58:56;;;;;;;5.75;3.03;;;0.10;60.20;;;;;;5073844;28;20051;-86
2022/01/21 05:01:22;;;;;;;9.30;4.95;;;0.00;60.00;;;;;;5073372;28;20115;-87
2022/01/21 05:03:50;;;;;;;6.68;3.38;;;0.00;60.00;;;;;;5073788;28;20036;-87
2022/01/21 05:06:16;;;;;;;8.32;3.35;;;0.00;60.00;;;;;;5073387;28;20036;-86
2022/01/21 05:08:51;;;;;;;4.82;3.05;;;0.00;60.10;;;;;;5073750;28;20082;-87
2022/01/21 05:11:18;;;;;;;4.18;3.13;;;0.00;60.10;;;;;;5090957;28;20028;-88
2022/01/21 05:13:58;;;;;;;6.13;3.20;;;0.00;60.10;;;;;;5056535;28;20033;-87
2022/01/21 05:18:56;;;;;;;5.50;3.33;;;-0.10;60.40;;;;;;5090470;28;20078;-83
2022/01/21 05:21:50;;;;;;;5.15;3.50;;;-0.10;59.90;;;;;;5086659;28;20534;-83
2022/01/21 05:24:21;;;;;;;6.50;3.17;;;-0.10;59.90;;;;;;5075688;28;20151;-84
2022/01/21 05:26:54;;;;;;;5.05;2.90;;;-0.10;59.90;;;;;;5075762;28;20029;-85
2022/01/21 05:29:25;;;;;;;6.97;2.97;;;-0.10;59.90;;;;;;5075634;28;20089;-86
2022/01/21 05:32:00;;;;;;;6.30;2.90;;;-0.10;59.90;;;;;;5075853;28;20024;-85
2022/01/21 05:34:34;;;;;;;4.68;2.70;;;-0.20;59.70;;;;;;5092919;28;20056;-86
2022/01/21 05:37:20;;;;;;;8.88;3.55;;;-0.20;59.70;;;;;;5092171;28;20040;-85
2022/01/21 05:40:17;;;;;;;6.18;3.35;;;-0.20;59.70;;;;;;5052695;28;20046;-87
2022/01/21 05:43:13;;;;;;;4.35;2.70;;;-0.20;59.70;;;;;;5084305;28;20032;-84
2022/01/21 05:48:43;;;;;;;5.32;2.83;;;-0.20;59.70;;;;;;5062333;28;20033;-86
2022/01/21 05:51:33;;;;;;;4.57;3.10;;;-0.20;59.70;;;;;;5066407;28;20744;-88
2022/01/21 05:54:25;;;;;;;4.63;2.22;;;-0.20;59.70;;;;;;5052940;28;20060;-87
2022/01/21 05:57:16;;;;;;;6.18;3.40;;;-0.20;59.60;;;;;;5052358;28;20447;-88
2022/01/21 05:59:46;;;;;;;4.63;3.13;;;-0.20;59.60;;;;;;5069837;28;20158;-88
2022/01/21 06:02:12;;;;;;;5.70;2.67;;;-0.20;59.70;;;;;;5063734;28;20043;-86
2022/01/21 06:04:40;;;;;;;5.43;2.92;;;-0.20;59.70;;;;;;5075057;28;20043;-85
2022/01/21 06:07:07;;;;;;;5.70;3.20;;;-0.20;59.70;;;;;;5075481;28;20040;-85
2022/01/21 06:09:33;;;;;;;5.55;2.90;;;-0.30;59.50;;;;;;5092231;28;20080;-84
2022/01/21 06:11:59;;;;;;;7.03;3.38;;;-0.20;59.70;;;;;;5076286;28;20039;-85
2022/01/21 06:14:25;;;;;;;5.55;2.90;;;-0.20;59.70;;;;;;5093443;28;20054;-89
2022/01/21 06:16:52;;;;;;;4.40;3.25;;;-0.30;59.50;;;;;;5093364;28;20049;-89
2022/01/21 06:19:19;;;;;;;3.75;2.80;;;-0.30;59.50;;;;;;5093108;28;20084;-86
2022/01/21 06:21:45;;;;;;;7.10;3.25;;;-0.30;59.50;;;;;;5093171;28;20200;-86
2022/01/21 06:24:11;;;;;;;6.53;3.40;;;-0.30;59.50;;;;;;5094435;28;20032;-87
2022/01/21 06:26:37;;;;;;;6.38;3.70;;;-0.30;59.50;;;;;;5094614;28;20063;-85
2022/01/21 06:29:04;;;;;;;8.13;3.33;;;-0.30;59.50;;;;;;5092870;28;20090;-88
2022/01/21 06:31:30;;;;;;;5.68;3.20;;;-0.30;59.50;;;;;;5094374;28;20044;-90
2022/01/21 06:33:57;;;;;;;5.03;3.60;;;-0.30;59.50;;;;;;5093769;28;20032;-89
2022/01/21 06:36:23;;;;;;;3.20;2.50;;;-0.30;59.50;;;;;;5084529;28;20077;-91
2022/01/21 06:38:49;;;;;;;5.97;3.03;;;-0.30;60.10;;;;;;5097937;28;20044;-88
2022/01/21 06:41:15;;;;;;;6.20;3.53;;;-0.30;59.50;;;;;;5074654;28;20040;-90
2022/01/21 06:43:41;;;;;;;5.97;3.42;;;-0.30;59.50;;;;;;5060816;28;20120;-88
2022/01/21 06:46:09;;;;;;;4.53;3.20;;;-0.30;59.40;;;;;;5052219;28;20045;-88
2022/01/21 06:48:36;;;;;;;4.55;2.72;;;-0.30;59.40;;;;;;5065264;28;20029;-91
2022/01/21 06:51:02;;;;;;;7.38;2.65;;;-0.30;59.40;;;;;;5059226;28;20035;-82
2022/01/21 06:53:28;;;;;;;5.68;3.80;;;-0.30;59.40;;;;;;5053016;28;20033;-83
2022/01/21 06:55:54;;;;;;;5.78;3.35;;;-0.30;59.40;;;;;;5066127;28;20036;-82
2022/01/21 06:58:20;;;;;;;4.10;3.50;;;-0.30;59.40;;;;;;5076507;28;20209;-83
2022/01/21 07:00:47;;;;;;;5.95;3.17;;;-0.30;59.40;;;;;;5073652;28;20036;-79
2022/01/21 07:03:13;;;;;;;6.68;3.35;;;-0.30;59.40;;;;;;5072873;28;20464;-77
2022/01/21 07:05:39;;;;;;;7.32;3.72;;;-0.30;59.40;;;;;;5066442;28;20038;-76
2022/01/21 07:08:05;;;;;;;5.35;4.10;;;-0.40;59.20;;;;;;5059275;28;20063;-78
2022/01/21 07:10:31;;;;;;;9.77;4.78;;;-0.30;59.60;;;;;;5083586;28;20033;-77
2022/01/21 07:12:58;;;;;;;9.23;4.53;;;-0.20;60.20;;;;;;5067912;28;20025;-76
2022/01/21 07:15:24;;;;;;;5.45;4.15;;;0.00;60.80;;;;;;5067716;28;20036;-76
2022/01/21 07:17:52;;;;;;;6.38;3.42;;;0.10;60.70;;;;;;5063006;28;20573;-78
2022/01/21 07:20:20;;;;;;;5.85;3.90;;;0.20;60.60;;;;;;5059733;28;20111;-78
2022/01/21 07:22:46;;;;;;;8.18;3.17;;;0.30;60.60;;;;;;5067526;28;20093;-80
2022/01/21 07:25:13;;;;;;;6.95;3.83;;;0.30;60.50;;;;;;5064261;28;20029;-77
2022/01/21 07:27:39;;;;;;;6.13;3.72;;;0.30;60.50;;;;;;5062614;28;20030;-77
2022/01/21 07:30:06;;;;;;;4.82;3.60;;;0.30;60.60;;;;;;5066579;28;20494;-79
2022/01/21 07:32:32;;;;;;;6.80;3.90;;;0.30;60.60;;;;;;5084209;28;20024;-78
2022/01/21 07:34:58;;;;;;;10.15;4.45;;;0.30;60.70;;;;;;5065538;28;20066;-78
2022/01/21 07:37:24;;;;;;;4.95;3.47;;;0.30;60.80;;;;;;5048166;28;20025;-77
2022/01/21 07:39:50;;;;;;;4.97;3.22;;;0.20;60.70;;;;;;5055743;28;20056;-78
2022/01/21 07:42:16;;;;;;;5.97;3.97;;;0.20;60.80;;;;;;5062617;28;20395;-78
2022/01/21 07:44:42;;;;;;;9.57;4.20;;;0.20;60.90;;;;;;5048511;28;20029;-77
2022/01/21 07:47:09;;;;;;;8.85;4.30;;;0.20;60.90;;;;;;5046401;28;20082;-77
2022/01/21 07:49:35;;;;;;;7.45;3.88;;;0.20;60.90;;;;;;5063877;28;20043;-77
2022/01/21 07:52:01;;;;;;;6.20;4.18;;;0.10;60.80;;;;;;5066367;28;20115;-77
2022/01/21 07:54:27;;;;;;;7.25;4.25;;;0.10;60.90;;;;;;5065640;28;20109;-77
2022/01/21 07:56:53;;;;;;;6.22;4.05;;;0.10;60.90;;;;;;5066516;28;20044;-78
2022/01/21 07:59:19;;;;;;;7.25;4.30;;;0.10;60.90;;;;;;5064874;28;20036;-78
2022/01/21 08:01:45;;;;;;;6.70;4.43;;;0.00;60.80;;;;;;5065225;28;20119;-78
2022/01/21 08:04:12;;;;;;;6.45;4.13;;;0.00;60.80;;;;;;5065426;28;20119;-77
2022/01/21 08:06:38;;;;;;;7.25;4.13;;;0.00;60.90;;;;;;5065756;28;20028;-78
2022/01/21 08:09:05;;;;;;;5.20;4.43;;;0.00;60.90;;;;;;5065482;28;20030;-77
2022/01/21 08:11:31;;;;;;;5.90;4.30;;;0.00;60.90;;;;;;5066733;28;20064;-77
2022/01/21 08:13:58;;;;;;;8.45;4.88;;;0.00;61.00;;;;;;5066397;28;20021;-77
2022/01/21 08:16:24;;;;;;;9.65;4.75;;;0.00;61.00;;;;;;5065279;28;20101;-78
2022/01/21 08:18:50;;;;;;;8.23;5.63;;;-0.10;60.80;;;;;;5067033;28;20036;-78
2022/01/21 08:21:20;;;;;;;7.88;4.88;;;0.00;61.00;;;;;;5081766;28;20098;-78
2022/01/21 08:23:53;;;;;;;10.27;5.32;;;0.00;61.00;;;;;;5065552;28;20648;-77
2022/01/21 08:26:28;;;;;;;9.48;4.78;;;0.00;61.00;;;;;;5066848;28;20029;-78
2022/01/21 08:28:56;;;;;;;7.00;4.85;;;0.00;61.00;;;;;;5081408;28;20017;-77
2022/01/21 08:31:24;;;;;;;9.07;5.43;;;0.00;60.90;;;;;;5066563;28;20043;-78
2022/01/21 08:33:51;;;;;;;8.32;5.70;;;0.00;60.90;;;;;;5066466;28;20043;-79
2022/01/21 08:36:22;;;;;;;10.40;6.07;;;0.00;60.90;;;;;;5066798;28;20072;-79
2022/01/21 08:38:49;;;;;;;8.02;5.93;;;0.00;60.90;;;;;;5067230;28;20044;-77
2022/01/21 08:41:15;;;;;;;9.85;5.80;;;0.00;60.80;;;;;;5062465;28;20056;-77
2022/01/21 08:43:41;;;;;;;7.40;5.05;;;0.00;60.80;;;;;;5066541;28;20060;-76
2022/01/21 08:46:08;;;;;;;12.02;5.95;;;0.00;60.80;;;;;;5081845;28;20166;-78
2022/01/21 08:48:35;;;;;;;12.90;7.72;;;0.10;61.00;;;;;;5056619;28;20025;-78
2022/01/21 08:51:08;;;;;;;10.30;7.93;;;0.10;61.00;;;;;;5044808;28;20039;-77
2022/01/21 08:53:36;;;;;;;9.85;7.55;;;0.10;61.00;;;;;;5046724;28;20056;-77
2022/01/21 08:56:14;;;;;;;10.57;7.25;;;0.20;61.20;;;;;;5046169;28;20052;-77
2022/01/21 08:58:41;;;;;;;11.18;7.22;;;0.20;61.10;;;;;;5055153;28;20501;-77
2022/01/21 09:01:09;;;;;;;11.55;6.97;;;0.30;61.20;;;;;;5066009;28;20357;-76
2022/01/21 09:03:37;;;;;;;10.07;6.25;;;0.30;61.10;;;;;;5047904;28;20028;-77
2022/01/21 09:06:03;;;;;;;10.05;6.78;;;0.30;61.00;;;;;;5063969;28;20025;-79
2022/01/21 09:08:30;;;;;;;7.72;6.63;;;0.40;61.20;;;;;;5058894;28;20028;-77
2022/01/21 09:10:59;;;;;;;10.82;6.28;;;0.40;61.20;;;;;;5066046;28;20035;-78
2022/01/21 09:13:28;;;;;;;10.32;6.97;;;0.40;61.10;;;;;;5065792;28;20404;-77
2022/01/21 09:15:58;;;;;;;8.52;6.18;;;0.40;61.20;;;;;;5065999;28;20038;-77
2022/01/21 09:18:33;;;;;;;7.55;6.65;;;0.40;61.10;;;;;;5064579;28;20516;-77
2022/01/21 09:20:59;;;;;;;8.18;6.32;;;0.50;61.30;;;;;;5065633;28;20076;-77
2022/01/21 09:23:25;;;;;;;8.75;6.53;;;0.50;61.20;;;;;;5066193;28;20039;-79
2022/01/21 09:25:52;;;;;;;10.15;7.45;;;0.50;61.20;;;;;;5064178;28;20036;-77
2022/01/21 09:28:18;;;;;;;11.00;6.05;;;0.60;61.30;;;;;;5066587;28;20031;-77
2022/01/21 09:30:45;;;;;;;9.07;6.55;;;0.50;61.10;;;;;;5069844;28;20040;-77
2022/01/21 09:33:11;;;;;;;10.15;5.50;;;0.60;61.20;;;;;;5069802;28;20143;-77
2022/01/21 09:35:37;;;;;;;11.02;5.95;;;0.60;61.20;;;;;;5069779;28;20135;-78
2022/01/21 09:38:03;;;;;;;9.70;6.53;;;0.70;61.40;;;;;;5069775;28;20039;-79
2022/01/21 09:40:31;;;;;;;10.52;6.00;;;0.70;61.30;;;;;;5069687;28;20028;-79
2022/01/21 09:42:58;;;;;;;9.45;6.07;;;0.80;61.50;;;;;;5067978;28;20025;-78
2022/01/21 09:45:27;;;;;;;9.15;6.57;;;0.80;61.40;;;;;;5069175;28;20029;-78
2022/01/21 09:47:58;;;;;;;10.13;6.78;;;0.80;61.40;;;;;;5069418;28;20106;-80
2022/01/21 09:50:24;;;;;;;9.73;7.55;;;0.90;61.50;;;;;;5069474;28;20060;-78
2022/01/21 09:52:52;;;;;;;10.10;7.13;;;1.00;61.60;;;;;;5069889;28;20142;-78
2022/01/21 09:55:22;;;;;;;9.02;6.65;;;1.00;61.50;;;;;;5069390;28;20068;-77
2022/01/21 09:57:53;;;;;;;10.13;7.13;;;1.00;61.40;;;;;;5069016;28;20386;-76
2022/01/21 10:00:22;;;;;;;10.13;6.88;;;1.10;61.60;;;;;;5068886;28;20105;-77
2022/01/21 10:02:49;;;;;;;10.10;7.03;;;1.10;61.50;;;;;;5067682;28;20060;-76
2022/01/21 10:05:16;;;;;;;9.68;6.75;;;1.20;61.70;;;;;;5067787;28;20036;-78
2022/01/21 10:07:45;;;;;;;10.52;7.22;;;1.10;61.40;;;;;;5069446;28;20032;-77
2022/01/21 10:10:12;;;;;;;9.60;6.65;;;1.20;61.60;;;;;;5068524;28;20032;-76
2022/01/21 10:12:39;;;;;;;8.95;6.63;;;1.30;62.30;;;;;;5067904;28;20459;-74
2022/01/21 10:15:07;;;;;;;9.63;7.15;;;1.30;61.70;;;;;;5068848;28;20033;-76
2022/01/21 10:17:35;;;;;;;11.45;7.32;;;1.30;61.80;;;;;;5067102;28;20395;-79
2022/01/21 10:20:21;;;;;;;14.30;7.30;;;1.40;62.20;;;;;;5063391;28;20282;-79
2022/01/21 10:22:57;;;;;;;11.07;7.78;;;1.50;62.40;;;;;;5060025;28;20060;-79
2022/01/21 10:25:24;;;;;;;10.88;7.40;;;1.70;62.60;;;;;;5068841;28;20035;-79
2022/01/21 10:27:51;;;;;;;12.63;8.30;;;1.70;62.50;;;;;;5068425;28;20642;-79
2022/01/21 10:30:25;;;;;;;9.02;7.45;;;1.80;62.60;;;;;;5067772;28;20041;-79
2022/01/21 10:32:52;;;;;;;12.00;7.85;;;1.90;62.80;;;;;;5068620;28;20392;-80
2022/01/21 10:35:26;;;;;;;9.45;7.68;;;1.90;62.60;;;;;;5067489;28;20044;-80
2022/01/21 10:37:57;;;;;;;9.77;6.88;;;2.00;62.80;;;;;;5068784;28;20120;-79
2022/01/21 10:40:32;;;;;;;10.50;7.20;;;2.00;62.70;;;;;;5068537;28;20483;-80
2022/01/21 10:43:16;;;;;;;9.00;6.82;;;2.10;62.90;;;;;;5068724;28;20055;-80
2022/01/21 10:45:54;;;;;;;11.10;7.68;;;2.10;62.90;;;;;;5068196;28;20029;-79
2022/01/21 10:48:21;;;;;;;8.98;6.88;;;2.20;63.00;;;;;;5068732;28;20399;-79
2022/01/21 10:51:08;;;;;;;8.80;7.20;;;2.30;63.10;;;;;;5071033;28;20131;-79
2022/01/21 10:53:34;;;;;;;11.30;7.15;;;2.40;63.20;;;;;;5071146;28;20039;-79
2022/01/21 10:56:10;;;;;;;10.18;7.25;;;2.40;63.20;;;;;;5071090;28;20048;-80
2022/01/21 10:58:41;;;;;;;10.07;7.15;;;2.60;63.40;;;;;;5070808;28;20028;-79
2022/01/21 11:01:13;;;;;;;10.70;6.88;;;2.60;63.30;;;;;;5070858;28;20036;-78
2022/01/21 11:04:06;;;;;;;9.32;7.60;;;2.70;63.30;;;;;;5070689;28;20040;-81
2022/01/21 11:06:44;;;;;;;8.80;7.13;;;2.80;63.50;;;;;;5070043;28;20028;-78
2022/01/21 11:09:21;;;;;;;10.25;7.22;;;2.90;63.50;;;;;;5069482;28;20123;-78
2022/01/21 11:12:06;;;;;;;11.15;7.65;;;3.00;63.60;;;;;;5069574;28;20020;-78
2022/01/21 11:14:34;;;;;;;9.27;7.13;;;3.10;63.70;;;;;;5068977;28;20340;-80
2022/01/21 11:17:12;;;;;;;10.82;7.13;;;3.20;63.80;;;;;;5069107;28;20063;-80
2022/01/21 11:19:38;;;;;;;9.93;8.32;;;3.30;63.90;;;;;;5068700;28;20060;-80
2022/01/21 11:22:04;;;;;;;12.05;7.85;;;3.40;63.90;;;;;;5068457;28;20124;-80
2022/01/21 11:24:31;;;;;;;11.32;6.68;;;3.50;63.90;;;;;;5067251;28;20111;-78
2022/01/21 11:27:11;;;;;;;11.07;7.75;;;3.60;64.00;;;;;;5066738;28;20562;-79
2022/01/21 11:29:38;;;;;;;12.98;7.82;;;3.70;63.90;;;;;;5051819;28;20566;-80
2022/01/21 11:32:05;;;;;;;11.00;8.70;;;3.90;64.10;;;;;;5048358;28;20079;-81
2022/01/21 11:34:35;;;;;;;8.93;7.53;;;4.00;64.10;;;;;;5047616;28;20033;-78
2022/01/21 11:37:02;;;;;;;11.50;8.23;;;4.20;64.30;;;;;;5046995;28;20120;-78
2022/01/21 11:39:31;;;;;;;11.55;7.65;;;4.30;64.30;;;;;;5060752;28;20045;-79
2022/01/21 11:41:59;;;;;;;10.43;7.88;;;4.40;64.20;;;;;;5047291;28;20064;-78
2022/01/21 11:44:27;;;;;;;12.32;8.45;;;4.60;64.40;;;;;;5047418;28;20500;-79
2022/01/21 11:47:15;;;;;;;12.13;8.05;;;4.70;64.50;;;;;;5047921;28;20028;-77
2022/01/21 11:49:52;;;;;;;12.68;8.45;;;4.80;64.50;;;;;;5064135;28;20032;-76
2022/01/21 11:52:19;;;;;;;11.30;8.02;;;5.00;64.60;;;;;;5066572;28;20387;-76
2022/01/21 11:54:46;;;;;;;10.15;7.72;;;5.00;64.50;;;;;;5066857;28;20059;-76
2022/01/21 11:57:13;;;;;;;11.35;7.60;;;5.10;64.50;;;;;;5066730;28;20041;-77
2022/01/21 12:02:24;;;;;;;9.45;7.93;;;5.30;64.70;;;;;;5067028;28;20032;-76
2022/01/21 12:04:52;;;;;;;11.63;7.30;;;5.40;64.80;;;;;;5066845;28;20036;-76
2022/01/21 12:07:37;;;;;;;12.48;8.50;;;5.40;64.80;;;;;;5064806;28;20040;-77
2022/01/21 12:10:07;;;;;;;11.93;9.50;;;5.50;65.00;;;;;;5065109;28;20119;-77
2022/01/21 12:13:03;;;;;;;9.98;7.90;;;5.60;65.10;;;;;;5067136;28;20029;-78
2022/01/21 12:18:30;;;;;;;13.63;9.07;;;5.70;65.20;;;;;;5066761;28;20121;-78
2022/01/21 12:20:57;;;;;;;11.05;8.18;;;5.70;65.20;;;;;;5066443;28;20053;-78
2022/01/21 12:23:25;;;;;;;10.15;7.78;;;5.80;65.40;;;;;;5066830;28;20032;-77
2022/01/21 12:26:09;;;;;;;9.15;8.32;;;5.80;65.40;;;;;;5067140;28;20074;-77
2022/01/21 12:28:37;;;;;;;6.88;5.88;;;5.80;65.30;;;;;;5067124;28;20017;-78
2022/01/21 12:31:05;;;;;;;8.88;6.78;;;5.90;65.50;;;;;;5072073;28;20476;-77
2022/01/21 12:36:22;;;;;;;8.60;6.82;;;6.20;66.20;;;;;;5054442;28;20094;-79
2022/01/21 12:41:17;;;;;;;7.32;6.22;;;6.40;66.20;;;;;;5070110;28;20131;-79
2022/01/21 12:43:47;;;;;;;9.93;6.57;;;6.50;66.20;;;;;;5065397;28;20242;-81
2022/01/21 12:46:34;;;;;;;9.65;7.35;;;6.50;66.20;;;;;;5065236;28;20052;-83
2022/01/21 12:49:21;;;;;;;10.75;6.97;;;6.60;66.30;;;;;;5041086;28;20282;-78
2022/01/21 12:52:13;;;;;;;9.82;7.05;;;6.60;66.30;;;;;;5014700;28;20044;-78
2022/01/21 12:57:32;;;;;;;13.82;7.45;;;6.70;66.30;;;;;;5073465;28;20534;-81
2022/01/21 13:00:00;;;;;;;9.10;7.13;;;6.70;66.30;;;;;;5074978;28;20029;-80
2022/01/21 13:02:28;;;;;;;11.00;7.88;;;6.70;66.30;;;;;;5074637;28;20076;-80
2022/01/21 13:05:02;;;;;;;11.50;7.25;;;6.70;66.30;;;;;;5078630;28;20056;-81
2022/01/21 13:07:50;;;;;;;8.50;7.03;;;6.80;66.60;;;;;;5072942;28;20491;-80
2022/01/21 13:10:29;;;;;;;10.73;8.10;;;6.80;66.60;;;;;;5070915;28;20095;-81
2022/01/21 13:15:42;;;;;;;8.85;6.97;;;6.90;66.70;;;;;;5070715;28;20136;-83
2022/01/21 13:18:11;;;;;;;11.25;6.90;;;6.90;66.70;;;;;;5068659;28;20225;-81
2022/01/21 13:20:39;;;;;;;12.25;8.80;;;6.90;66.70;;;;;;5068663;28;20036;-80
2022/01/21 13:23:06;;;;;;;10.32;7.97;;;6.90;66.60;;;;;;5070164;28;20509;-79
2022/01/21 13:25:33;;;;;;;12.52;7.43;;;6.90;66.60;;;;;;5057359;28;20052;-81
2022/01/21 13:28:05;;;;;;;9.55;7.65;;;6.90;66.60;;;;;;5060137;28;20032;-79
2022/01/21 13:30:35;;;;;;;12.50;8.40;;;6.90;66.60;;;;;;5069855;28;20036;-80
2022/01/21 13:33:09;;;;;;;12.90;7.82;;;6.90;66.60;;;;;;5070020;28;20024;-79
2022/01/21 13:35:39;;;;;;;13.13;7.60;;;6.90;66.60;;;;;;5069433;28;20039;-79
2022/01/21 13:38:18;;;;;;;16.17;9.55;;;6.90;66.60;;;;;;5069410;28;20078;-80
2022/01/21 13:40:50;;;;;;;15.20;8.02;;;6.90;66.60;;;;;;5068430;28;20098;-79
2022/01/21 13:43:22;;;;;;;14.02;8.52;;;6.90;66.60;;;;;;5069466;28;20071;-79
2022/01/21 13:46:02;;;;;;;14.95;8.52;;;6.90;66.60;;;;;;5068397;28;20062;-79
2022/01/21 13:48:31;;;;;;;10.23;8.02;;;6.90;66.60;;;;;;5068415;28;20090;-79
2022/01/21 13:50:58;;;;;;;17.92;11.10;;;6.90;66.60;;;;;;5085361;28;20427;-79
2022/01/21 13:53:26;;;;;;;15.05;9.32;;;6.90;66.50;;;;;;5069395;28;20028;-79
2022/01/21 13:55:55;;;;;;;15.20;9.85;;;6.90;66.50;;;;;;5069533;28;20468;-79
2022/01/21 13:58:30;;;;;;;15.32;9.27;;;6.90;66.40;;;;;;5069628;28;20023;-79
2022/01/21 14:00:56;;;;;;;14.23;10.85;;;6.90;66.40;;;;;;5067923;28;20144;-78
2022/01/21 14:03:32;;;;;;;13.90;9.73;;;6.90;66.40;;;;;;5069685;28;20123;-79
2022/01/21 14:06:20;;;;;;;13.48;9.15;;;6.90;66.30;;;;;;5069903;28;20028;-79
2022/01/21 14:08:52;;;;;;;14.30;9.73;;;6.90;66.30;;;;;;5070235;28;20479;-79
2022/01/21 14:11:27;;;;;;;14.40;10.02;;;6.90;66.30;;;;;;5070110;28;20028;-80